sensor_id;sensor_type;location;lat;lon;timestamp;temperature;humidity
35700;DHT22;21818;51.078;12.108;2022-11-20T00:02:21;5.40;73.50
35700;DHT22;21818;51.078;12.108;2022-11-20T00:04:46;5.50;73.40
35700;DHT22;21818;51.078;12.108;2022-11-20T00:07:12;5.40;73.30
35700;DHT22;21818;51.078;12.108;2022-11-20T00:09:37;5.40;73.40
35700;DHT22;21818;51.078;12.108;2022-11-20T00:12:03;5.30;73.60
35700;DHT22;21818;51.078;12.108;2022-11-20T00:14:29;5.30;73.60
35700;DHT22;21818;51.078;12.108;2022-11-20T00:16:54;5.30;73.70
35700;DHT22;21818;51.078;12.108;2022-11-20T00:19:20;5.30;73.60
35700;DHT22;21818;51.078;12.108;2022-11-20T00:21:45;5.30;73.60
35700;DHT22;21818;51.078;12.108;2022-11-20T00:24:11;5.30;73.70
35700;DHT22;21818;51.078;12.108;2022-11-20T00:26:37;5.20;73.70
35700;DHT22;21818;51.078;12.108;2022-11-20T00:29:02;5.20;73.70
35700;DHT22;21818;51.078;12.108;2022-11-20T00:31:29;5.10;73.70
35700;DHT22;21818;51.078;12.108;2022-11-20T00:33:55;5.10;74.40
35700;DHT22;21818;51.078;12.108;2022-11-20T00:36:23;5.10;74.30
35700;DHT22;21818;51.078;12.108;2022-11-20T00:38:53;5.00;73.80
35700;DHT22;21818;51.078;12.108;2022-11-20T00:41:19;5.10;73.80
35700;DHT22;21818;51.078;12.108;2022-11-20T00:43:45;5.00;73.60
35700;DHT22;21818;51.078;12.108;2022-11-20T00:46:14;5.10;73.70
35700;DHT22;21818;51.078;12.108;2022-11-20T00:48:39;5.10;73.50
35700;DHT22;21818;51.078;12.108;2022-11-20T00:51:05;5.10;73.40
35700;DHT22;21818;51.078;12.108;2022-11-20T00:53:31;5.00;73.30
35700;DHT22;21818;51.078;12.108;2022-11-20T00:56:04;5.00;73.30
35700;DHT22;21818;51.078;12.108;2022-11-20T00:58:34;5.00;73.20
35700;DHT22;21818;51.078;12.108;2022-11-20T01:01:08;4.90;73.20
35700;DHT22;21818;51.078;12.108;2022-11-20T01:03:36;4.90;73.30
35700;DHT22;21818;51.078;12.108;2022-11-20T01:06:05;5.00;73.40
35700;DHT22;21818;51.078;12.108;2022-11-20T01:08:33;5.00;73.40
35700;DHT22;21818;51.078;12.108;2022-11-20T01:11:04;5.00;73.70
35700;DHT22;21818;51.078;12.108;2022-11-20T01:13:31;5.10;73.60
35700;DHT22;21818;51.078;12.108;2022-11-20T01:16:09;5.10;73.70
35700;DHT22;21818;51.078;12.108;2022-11-20T01:18:36;5.10;73.60
35700;DHT22;21818;51.078;12.108;2022-11-20T01:21:09;5.20;74.00
35700;DHT22;21818;51.078;12.108;2022-11-20T01:23:37;5.20;73.40
35700;DHT22;21818;51.078;12.108;2022-11-20T01:26:04;5.20;73.40
35700;DHT22;21818;51.078;12.108;2022-11-20T01:28:30;5.30;73.30
35700;DHT22;21818;51.078;12.108;2022-11-20T01:30:57;5.30;73.30
35700;DHT22;21818;51.078;12.108;2022-11-20T01:33:23;5.30;73.20
35700;DHT22;21818;51.078;12.108;2022-11-20T01:35:48;5.30;73.30
35700;DHT22;21818;51.078;12.108;2022-11-20T01:38:15;5.30;73.00
35700;DHT22;21818;51.078;12.108;2022-11-20T01:40:41;5.30;73.10
35700;DHT22;21818;51.078;12.108;2022-11-20T01:43:14;5.20;73.10
35700;DHT22;21818;51.078;12.108;2022-11-20T01:46:02;5.10;73.00
35700;DHT22;21818;51.078;12.108;2022-11-20T01:48:46;5.10;73.10
35700;DHT22;21818;51.078;12.108;2022-11-20T01:51:26;5.10;73.10
35700;DHT22;21818;51.078;12.108;2022-11-20T01:53:54;5.10;73.00
35700;DHT22;21818;51.078;12.108;2022-11-20T01:56:21;5.10;72.80
35700;DHT22;21818;51.078;12.108;2022-11-20T01:58:51;5.00;72.90
35700;DHT22;21818;51.078;12.108;2022-11-20T02:01:20;5.00;72.80
35700;DHT22;21818;51.078;12.108;2022-11-20T02:03:46;5.00;72.80
35700;DHT22;21818;51.078;12.108;2022-11-20T02:06:44;5.00;72.80
35700;DHT22;21818;51.078;12.108;2022-11-20T02:09:11;4.90;72.80
35700;DHT22;21818;51.078;12.108;2022-11-20T02:11:37;5.00;73.40
35700;DHT22;21818;51.078;12.108;2022-11-20T02:14:03;5.00;72.90
35700;DHT22;21818;51.078;12.108;2022-11-20T02:16:31;5.00;72.70
35700;DHT22;21818;51.078;12.108;2022-11-20T02:19:00;4.90;72.70
35700;DHT22;21818;51.078;12.108;2022-11-20T02:21:49;4.90;72.80
35700;DHT22;21818;51.078;12.108;2022-11-20T02:24:22;4.90;72.80
35700;DHT22;21818;51.078;12.108;2022-11-20T02:27:06;4.90;72.70
35700;DHT22;21818;51.078;12.108;2022-11-20T02:32:02;4.90;72.80
35700;DHT22;21818;51.078;12.108;2022-11-20T02:34:28;4.90;72.70
35700;DHT22;21818;51.078;12.108;2022-11-20T02:36:54;4.90;72.70
35700;DHT22;21818;51.078;12.108;2022-11-20T02:39:22;5.00;72.70
35700;DHT22;21818;51.078;12.108;2022-11-20T02:41:50;5.00;72.70
35700;DHT22;21818;51.078;12.108;2022-11-20T02:44:17;4.90;72.70
35700;DHT22;21818;51.078;12.108;2022-11-20T02:46:42;4.90;72.80
35700;DHT22;21818;51.078;12.108;2022-11-20T02:49:08;4.80;72.90
35700;DHT22;21818;51.078;12.108;2022-11-20T02:51:34;4.80;72.80
35700;DHT22;21818;51.078;12.108;2022-11-20T02:53:59;4.80;72.70
35700;DHT22;21818;51.078;12.108;2022-11-20T02:56:25;4.80;72.50
35700;DHT22;21818;51.078;12.108;2022-11-20T02:58:51;4.80;72.50
35700;DHT22;21818;51.078;12.108;2022-11-20T03:01:16;4.80;72.50
35700;DHT22;21818;51.078;12.108;2022-11-20T03:03:42;4.80;72.40
35700;DHT22;21818;51.078;12.108;2022-11-20T03:06:08;4.70;72.70
35700;DHT22;21818;51.078;12.108;2022-11-20T03:08:34;4.80;72.60
35700;DHT22;21818;51.078;12.108;2022-11-20T03:11:07;5.00;72.50
35700;DHT22;21818;51.078;12.108;2022-11-20T03:13:33;5.10;72.40
35700;DHT22;21818;51.078;12.108;2022-11-20T03:16:08;5.30;72.00
35700;DHT22;21818;51.078;12.108;2022-11-20T03:18:33;5.50;71.60
35700;DHT22;21818;51.078;12.108;2022-11-20T03:21:00;5.70;71.30
35700;DHT22;21818;51.078;12.108;2022-11-20T03:23:25;5.70;71.00
35700;DHT22;21818;51.078;12.108;2022-11-20T03:25:51;5.70;71.00
35700;DHT22;21818;51.078;12.108;2022-11-20T03:28:17;5.80;70.70
35700;DHT22;21818;51.078;12.108;2022-11-20T03:30:42;5.80;70.90
35700;DHT22;21818;51.078;12.108;2022-11-20T03:33:08;5.80;70.90
35700;DHT22;21818;51.078;12.108;2022-11-20T03:35:33;5.80;70.90
35700;DHT22;21818;51.078;12.108;2022-11-20T03:37:59;5.90;70.90
35700;DHT22;21818;51.078;12.108;2022-11-20T03:40:24;5.90;70.90
35700;DHT22;21818;51.078;12.108;2022-11-20T03:42:50;5.80;70.80
35700;DHT22;21818;51.078;12.108;2022-11-20T03:45:17;5.70;71.00
35700;DHT22;21818;51.078;12.108;2022-11-20T03:47:44;5.50;71.40
35700;DHT22;21818;51.078;12.108;2022-11-20T03:50:11;5.40;71.30
35700;DHT22;21818;51.078;12.108;2022-11-20T03:52:41;5.40;71.70
35700;DHT22;21818;51.078;12.108;2022-11-20T03:55:07;5.30;71.70
35700;DHT22;21818;51.078;12.108;2022-11-20T03:57:33;5.20;71.50
35700;DHT22;21818;51.078;12.108;2022-11-20T03:59:58;5.00;71.40
35700;DHT22;21818;51.078;12.108;2022-11-20T04:02:24;4.90;71.80
35700;DHT22;21818;51.078;12.108;2022-11-20T04:04:49;4.80;72.00
35700;DHT22;21818;51.078;12.108;2022-11-20T04:07:15;4.80;72.10
35700;DHT22;21818;51.078;12.108;2022-11-20T04:09:40;4.80;72.20
35700;DHT22;21818;51.078;12.108;2022-11-20T04:12:06;4.70;71.90
35700;DHT22;21818;51.078;12.108;2022-11-20T04:14:32;4.70;72.10
35700;DHT22;21818;51.078;12.108;2022-11-20T04:16:57;4.70;72.60
35700;DHT22;21818;51.078;12.108;2022-11-20T04:19:23;4.70;71.90
35700;DHT22;21818;51.078;12.108;2022-11-20T04:21:48;4.70;72.00
35700;DHT22;21818;51.078;12.108;2022-11-20T04:24:14;4.70;71.80
35700;DHT22;21818;51.078;12.108;2022-11-20T04:26:40;4.60;71.70
35700;DHT22;21818;51.078;12.108;2022-11-20T04:29:06;4.60;71.80
35700;DHT22;21818;51.078;12.108;2022-11-20T04:31:34;4.70;71.70
35700;DHT22;21818;51.078;12.108;2022-11-20T04:34:04;4.60;71.60
35700;DHT22;21818;51.078;12.108;2022-11-20T04:36:30;4.60;71.70
35700;DHT22;21818;51.078;12.108;2022-11-20T04:38:58;4.50;71.60
35700;DHT22;21818;51.078;12.108;2022-11-20T04:41:29;4.50;72.30
35700;DHT22;21818;51.078;12.108;2022-11-20T04:43:57;4.50;71.80
35700;DHT22;21818;51.078;12.108;2022-11-20T04:46:29;4.50;71.80
35700;DHT22;21818;51.078;12.108;2022-11-20T04:48:55;4.40;71.80
35700;DHT22;21818;51.078;12.108;2022-11-20T04:51:21;4.40;72.00
35700;DHT22;21818;51.078;12.108;2022-11-20T04:53:47;4.40;71.90
35700;DHT22;21818;51.078;12.108;2022-11-20T04:56:14;4.40;71.90
35700;DHT22;21818;51.078;12.108;2022-11-20T04:58:39;4.40;72.10
35700;DHT22;21818;51.078;12.108;2022-11-20T05:01:08;4.30;71.90
35700;DHT22;21818;51.078;12.108;2022-11-20T05:03:34;4.30;71.90
35700;DHT22;21818;51.078;12.108;2022-11-20T05:06:01;4.20;72.00
35700;DHT22;21818;51.078;12.108;2022-11-20T05:08:27;4.20;72.00
35700;DHT22;21818;51.078;12.108;2022-11-20T05:10:53;4.20;71.90
35700;DHT22;21818;51.078;12.108;2022-11-20T05:13:18;4.30;71.90
35700;DHT22;21818;51.078;12.108;2022-11-20T05:15:44;4.30;71.80
35700;DHT22;21818;51.078;12.108;2022-11-20T05:18:10;4.30;71.80
35700;DHT22;21818;51.078;12.108;2022-11-20T05:20:35;4.20;71.70
35700;DHT22;21818;51.078;12.108;2022-11-20T05:23:01;4.20;71.80
35700;DHT22;21818;51.078;12.108;2022-11-20T05:25:27;4.20;71.90
35700;DHT22;21818;51.078;12.108;2022-11-20T05:27:53;4.20;71.90
35700;DHT22;21818;51.078;12.108;2022-11-20T05:30:19;4.10;71.80
35700;DHT22;21818;51.078;12.108;2022-11-20T05:32:44;4.10;71.80
35700;DHT22;21818;51.078;12.108;2022-11-20T05:35:10;4.10;71.90
35700;DHT22;21818;51.078;12.108;2022-11-20T05:37:35;4.10;71.90
35700;DHT22;21818;51.078;12.108;2022-11-20T05:40:01;4.10;71.90
35700;DHT22;21818;51.078;12.108;2022-11-20T05:42:30;4.00;71.60
35700;DHT22;21818;51.078;12.108;2022-11-20T05:45:00;4.10;71.80
35700;DHT22;21818;51.078;12.108;2022-11-20T05:47:27;4.10;71.80
35700;DHT22;21818;51.078;12.108;2022-11-20T05:49:53;4.40;71.20
35700;DHT22;21818;51.078;12.108;2022-11-20T05:52:19;4.60;70.90
35700;DHT22;21818;51.078;12.108;2022-11-20T05:54:45;5.00;70.20
35700;DHT22;21818;51.078;12.108;2022-11-20T05:57:11;5.20;69.80
35700;DHT22;21818;51.078;12.108;2022-11-20T05:59:36;5.50;69.10
35700;DHT22;21818;51.078;12.108;2022-11-20T06:02:02;5.70;68.50
35700;DHT22;21818;51.078;12.108;2022-11-20T06:04:27;5.80;68.50
35700;DHT22;21818;51.078;12.108;2022-11-20T06:06:53;5.90;68.00
35700;DHT22;21818;51.078;12.108;2022-11-20T06:09:19;6.00;67.60
35700;DHT22;21818;51.078;12.108;2022-11-20T06:11:44;6.10;68.00
35700;DHT22;21818;51.078;12.108;2022-11-20T06:14:10;6.40;67.40
35700;DHT22;21818;51.078;12.108;2022-11-20T06:16:36;6.50;67.10
35700;DHT22;21818;51.078;12.108;2022-11-20T06:19:01;6.60;66.60
35700;DHT22;21818;51.078;12.108;2022-11-20T06:21:27;6.70;66.70
35700;DHT22;21818;51.078;12.108;2022-11-20T06:23:53;6.70;66.30
35700;DHT22;21818;51.078;12.108;2022-11-20T06:26:27;6.60;66.60
35700;DHT22;21818;51.078;12.108;2022-11-20T06:28:54;6.70;66.80
35700;DHT22;21818;51.078;12.108;2022-11-20T06:31:23;6.70;67.00
35700;DHT22;21818;51.078;12.108;2022-11-20T06:33:50;6.80;66.80
35700;DHT22;21818;51.078;12.108;2022-11-20T06:36:17;6.80;66.10
35700;DHT22;21818;51.078;12.108;2022-11-20T06:38:44;6.80;66.70
35700;DHT22;21818;51.078;12.108;2022-11-20T06:41:18;6.70;66.70
35700;DHT22;21818;51.078;12.108;2022-11-20T06:43:44;6.50;66.90
35700;DHT22;21818;51.078;12.108;2022-11-20T06:46:11;6.30;67.30
35700;DHT22;21818;51.078;12.108;2022-11-20T06:48:37;6.10;67.30
35700;DHT22;21818;51.078;12.108;2022-11-20T06:51:05;6.00;67.70
35700;DHT22;21818;51.078;12.108;2022-11-20T06:53:31;6.20;68.70
35700;DHT22;21818;51.078;12.108;2022-11-20T06:55:57;7.30;67.40
35700;DHT22;21818;51.078;12.108;2022-11-20T06:58:30;8.10;65.90
35700;DHT22;21818;51.078;12.108;2022-11-20T07:01:06;8.70;64.80
35700;DHT22;21818;51.078;12.108;2022-11-20T07:03:32;9.10;64.20
35700;DHT22;21818;51.078;12.108;2022-11-20T07:06:00;9.40;63.80
35700;DHT22;21818;51.078;12.108;2022-11-20T07:08:26;9.60;63.60
35700;DHT22;21818;51.078;12.108;2022-11-20T07:10:52;9.70;63.50
35700;DHT22;21818;51.078;12.108;2022-11-20T07:13:18;9.80;63.50
35700;DHT22;21818;51.078;12.108;2022-11-20T07:15:44;9.90;63.40
35700;DHT22;21818;51.078;12.108;2022-11-20T07:18:09;9.90;63.50
35700;DHT22;21818;51.078;12.108;2022-11-20T07:20:35;9.90;63.50
35700;DHT22;21818;51.078;12.108;2022-11-20T07:23:01;10.00;63.50
35700;DHT22;21818;51.078;12.108;2022-11-20T07:25:27;10.00;63.50
35700;DHT22;21818;51.078;12.108;2022-11-20T07:27:59;10.00;63.50
35700;DHT22;21818;51.078;12.108;2022-11-20T07:30:25;10.00;63.40
35700;DHT22;21818;51.078;12.108;2022-11-20T07:32:52;10.10;63.40
35700;DHT22;21818;51.078;12.108;2022-11-20T07:35:18;10.10;63.40
35700;DHT22;21818;51.078;12.108;2022-11-20T07:37:44;10.20;63.30
35700;DHT22;21818;51.078;12.108;2022-11-20T07:40:12;10.20;63.40
35700;DHT22;21818;51.078;12.108;2022-11-20T07:42:37;10.20;63.40
35700;DHT22;21818;51.078;12.108;2022-11-20T07:45:03;10.20;63.50
35700;DHT22;21818;51.078;12.108;2022-11-20T07:47:29;10.20;63.50
35700;DHT22;21818;51.078;12.108;2022-11-20T07:49:59;10.20;63.60
35700;DHT22;21818;51.078;12.108;2022-11-20T07:52:25;10.30;63.80
35700;DHT22;21818;51.078;12.108;2022-11-20T07:54:50;10.30;63.80
35700;DHT22;21818;51.078;12.108;2022-11-20T07:57:16;10.30;63.70
35700;DHT22;21818;51.078;12.108;2022-11-20T07:59:41;10.40;63.70
35700;DHT22;21818;51.078;12.108;2022-11-20T08:02:10;10.40;63.80
35700;DHT22;21818;51.078;12.108;2022-11-20T08:04:35;10.40;63.80
35700;DHT22;21818;51.078;12.108;2022-11-20T08:07:01;10.40;63.80
35700;DHT22;21818;51.078;12.108;2022-11-20T08:09:27;10.40;63.90
35700;DHT22;21818;51.078;12.108;2022-11-20T08:11:54;10.50;64.00
35700;DHT22;21818;51.078;12.108;2022-11-20T08:14:38;10.50;64.00
35700;DHT22;21818;51.078;12.108;2022-11-20T08:17:04;10.50;64.00
35700;DHT22;21818;51.078;12.108;2022-11-20T08:19:30;10.50;64.10
35700;DHT22;21818;51.078;12.108;2022-11-20T08:21:55;10.50;64.20
35700;DHT22;21818;51.078;12.108;2022-11-20T08:24:21;10.50;64.20
35700;DHT22;21818;51.078;12.108;2022-11-20T08:26:46;10.60;64.20
35700;DHT22;21818;51.078;12.108;2022-11-20T08:29:12;10.60;64.20
35700;DHT22;21818;51.078;12.108;2022-11-20T08:31:38;10.60;64.20
35700;DHT22;21818;51.078;12.108;2022-11-20T08:34:03;10.70;64.30
35700;DHT22;21818;51.078;12.108;2022-11-20T08:36:33;10.70;64.30
35700;DHT22;21818;51.078;12.108;2022-11-20T08:38:59;10.70;64.20
35700;DHT22;21818;51.078;12.108;2022-11-20T08:41:24;10.70;64.20
35700;DHT22;21818;51.078;12.108;2022-11-20T08:43:55;10.70;64.20
35700;DHT22;21818;51.078;12.108;2022-11-20T08:46:22;10.70;64.20
35700;DHT22;21818;51.078;12.108;2022-11-20T08:48:48;10.70;64.20
35700;DHT22;21818;51.078;12.108;2022-11-20T08:51:14;10.70;64.10
35700;DHT22;21818;51.078;12.108;2022-11-20T08:53:40;10.70;64.20
35700;DHT22;21818;51.078;12.108;2022-11-20T08:56:07;10.70;64.70
35700;DHT22;21818;51.078;12.108;2022-11-20T08:58:32;10.70;64.20
35700;DHT22;21818;51.078;12.108;2022-11-20T09:00:58;10.70;64.10
35700;DHT22;21818;51.078;12.108;2022-11-20T09:03:24;10.70;64.20
35700;DHT22;21818;51.078;12.108;2022-11-20T09:05:59;10.70;64.10
35700;DHT22;21818;51.078;12.108;2022-11-20T09:08:26;10.70;64.10
35700;DHT22;21818;51.078;12.108;2022-11-20T09:10:56;10.70;64.20
35700;DHT22;21818;51.078;12.108;2022-11-20T09:13:22;10.70;64.20
35700;DHT22;21818;51.078;12.108;2022-11-20T09:15:56;10.80;64.20
35700;DHT22;21818;51.078;12.108;2022-11-20T09:18:23;10.80;64.10
35700;DHT22;21818;51.078;12.108;2022-11-20T09:20:49;10.80;64.10
35700;DHT22;21818;51.078;12.108;2022-11-20T09:23:15;10.80;64.10
35700;DHT22;21818;51.078;12.108;2022-11-20T09:25:41;10.80;64.10
35700;DHT22;21818;51.078;12.108;2022-11-20T09:28:07;10.80;64.10
35700;DHT22;21818;51.078;12.108;2022-11-20T09:30:33;10.80;64.10
35700;DHT22;21818;51.078;12.108;2022-11-20T09:32:59;10.80;64.10
35700;DHT22;21818;51.078;12.108;2022-11-20T09:35:24;10.80;64.20
35700;DHT22;21818;51.078;12.108;2022-11-20T09:37:50;10.80;64.20
35700;DHT22;21818;51.078;12.108;2022-11-20T09:40:22;10.90;64.20
35700;DHT22;21818;51.078;12.108;2022-11-20T09:46:04;10.90;64.20
35700;DHT22;21818;51.078;12.108;2022-11-20T09:51:36;10.90;64.20
35700;DHT22;21818;51.078;12.108;2022-11-20T09:54:20;10.90;64.60
35700;DHT22;21818;51.078;12.108;2022-11-20T09:57:03;10.90;64.30
35700;DHT22;21818;51.078;12.108;2022-11-20T09:59:59;11.00;64.20
35700;DHT22;21818;51.078;12.108;2022-11-20T10:02:35;11.00;64.10
35700;DHT22;21818;51.078;12.108;2022-11-20T10:05:09;11.00;64.10
35700;DHT22;21818;51.078;12.108;2022-11-20T10:07:51;11.00;64.10
35700;DHT22;21818;51.078;12.108;2022-11-20T10:10:28;11.00;64.00
35700;DHT22;21818;51.078;12.108;2022-11-20T10:16:26;11.00;63.90
35700;DHT22;21818;51.078;12.108;2022-11-20T10:27:34;11.00;64.10
35700;DHT22;21818;51.078;12.108;2022-11-20T10:30:09;11.10;64.20
35700;DHT22;21818;51.078;12.108;2022-11-20T10:32:45;11.10;64.20
35700;DHT22;21818;51.078;12.108;2022-11-20T10:38:05;11.10;64.10
35700;DHT22;21818;51.078;12.108;2022-11-20T10:40:41;11.10;64.20
35700;DHT22;21818;51.078;12.108;2022-11-20T10:43:19;11.10;64.10
35700;DHT22;21818;51.078;12.108;2022-11-20T10:45:55;11.20;64.10
35700;DHT22;21818;51.078;12.108;2022-11-20T10:48:24;11.20;64.10
35700;DHT22;21818;51.078;12.108;2022-11-20T10:56:44;11.30;64.00
35700;DHT22;21818;51.078;12.108;2022-11-20T11:02:20;11.20;64.10
35700;DHT22;21818;51.078;12.108;2022-11-20T11:04:47;11.20;64.10
35700;DHT22;21818;51.078;12.108;2022-11-20T11:07:50;11.20;64.20
35700;DHT22;21818;51.078;12.108;2022-11-20T11:10:18;11.20;64.10
35700;DHT22;21818;51.078;12.108;2022-11-20T11:12:45;11.20;64.20
35700;DHT22;21818;51.078;12.108;2022-11-20T11:15:26;11.30;64.10
35700;DHT22;21818;51.078;12.108;2022-11-20T11:17:52;11.30;64.00
35700;DHT22;21818;51.078;12.108;2022-11-20T11:20:23;11.30;64.00
35700;DHT22;21818;51.078;12.108;2022-11-20T11:22:54;11.30;63.90
35700;DHT22;21818;51.078;12.108;2022-11-20T11:27:50;11.30;63.90
35700;DHT22;21818;51.078;12.108;2022-11-20T11:30:18;11.40;63.80
35700;DHT22;21818;51.078;12.108;2022-11-20T11:32:44;11.40;63.70
35700;DHT22;21818;51.078;12.108;2022-11-20T11:35:27;11.40;63.70
35700;DHT22;21818;51.078;12.108;2022-11-20T11:38:02;11.50;63.60
35700;DHT22;21818;51.078;12.108;2022-11-20T11:40:31;11.50;63.40
35700;DHT22;21818;51.078;12.108;2022-11-20T11:42:59;11.50;63.40
35700;DHT22;21818;51.078;12.108;2022-11-20T11:45:26;11.60;63.50
35700;DHT22;21818;51.078;12.108;2022-11-20T11:47:55;11.60;63.40
35700;DHT22;21818;51.078;12.108;2022-11-20T11:50:25;11.70;63.30
35700;DHT22;21818;51.078;12.108;2022-11-20T11:53:14;11.70;63.20
35700;DHT22;21818;51.078;12.108;2022-11-20T11:58:35;11.80;63.60
35700;DHT22;21818;51.078;12.108;2022-11-20T12:01:55;11.80;63.10
35700;DHT22;21818;51.078;12.108;2022-11-20T12:06:25;11.80;63.00
35700;DHT22;21818;51.078;12.108;2022-11-20T12:08:58;11.80;63.00
35700;DHT22;21818;51.078;12.108;2022-11-20T12:11:29;11.80;62.90
35700;DHT22;21818;51.078;12.108;2022-11-20T12:14:09;11.80;63.00
35700;DHT22;21818;51.078;12.108;2022-11-20T12:16:38;11.80;63.10
35700;DHT22;21818;51.078;12.108;2022-11-20T12:19:12;11.70;63.10
35700;DHT22;21818;51.078;12.108;2022-11-20T12:21:54;11.70;63.20
35700;DHT22;21818;51.078;12.108;2022-11-20T12:30:21;11.70;63.20
35700;DHT22;21818;51.078;12.108;2022-11-20T12:33:12;11.80;63.10
35700;DHT22;21818;51.078;12.108;2022-11-20T12:38:35;11.80;63.10
35700;DHT22;21818;51.078;12.108;2022-11-20T13:01:48;11.90;62.80
35700;DHT22;21818;51.078;12.108;2022-11-20T13:07:03;11.90;62.80
35700;DHT22;21818;51.078;12.108;2022-11-20T13:09:31;11.80;62.90
35700;DHT22;21818;51.078;12.108;2022-11-20T13:12:14;12.00;62.80
35700;DHT22;21818;51.078;12.108;2022-11-20T13:15:18;12.20;62.40
35700;DHT22;21818;51.078;12.108;2022-11-20T13:17:58;12.40;61.90
35700;DHT22;21818;51.078;12.108;2022-11-20T13:20:25;12.60;61.40
35700;DHT22;21818;51.078;12.108;2022-11-20T13:22:57;12.70;61.20
35700;DHT22;21818;51.078;12.108;2022-11-20T13:25:35;12.80;61.00
35700;DHT22;21818;51.078;12.108;2022-11-20T13:28:27;12.90;60.80
35700;DHT22;21818;51.078;12.108;2022-11-20T13:30:56;13.00;60.70
35700;DHT22;21818;51.078;12.108;2022-11-20T13:33:23;13.10;60.60
35700;DHT22;21818;51.078;12.108;2022-11-20T13:36:01;13.10;60.50
35700;DHT22;21818;51.078;12.108;2022-11-20T13:38:28;13.20;60.40
35700;DHT22;21818;51.078;12.108;2022-11-20T13:41:08;13.30;60.40
35700;DHT22;21818;51.078;12.108;2022-11-20T13:43:52;13.30;60.20
35700;DHT22;21818;51.078;12.108;2022-11-20T13:46:18;13.30;60.00
35700;DHT22;21818;51.078;12.108;2022-11-20T13:48:50;13.40;60.10
35700;DHT22;21818;51.078;12.108;2022-11-20T14:02:16;13.50;59.70
35700;DHT22;21818;51.078;12.108;2022-11-20T14:04:51;13.50;59.70
35700;DHT22;21818;51.078;12.108;2022-11-20T14:07:19;13.50;59.50
35700;DHT22;21818;51.078;12.108;2022-11-20T14:09:56;13.50;59.60
35700;DHT22;21818;51.078;12.108;2022-11-20T14:12:30;13.60;59.50
35700;DHT22;21818;51.078;12.108;2022-11-20T14:14:57;13.50;59.40
35700;DHT22;21818;51.078;12.108;2022-11-20T14:19:51;13.60;59.40
35700;DHT22;21818;51.078;12.108;2022-11-20T14:22:25;13.50;59.30
35700;DHT22;21818;51.078;12.108;2022-11-20T14:27:40;13.60;59.20
35700;DHT22;21818;51.078;12.108;2022-11-20T14:30:22;13.60;59.20
35700;DHT22;21818;51.078;12.108;2022-11-20T14:32:48;13.50;59.10
35700;DHT22;21818;51.078;12.108;2022-11-20T14:37:49;13.50;59.20
35700;DHT22;21818;51.078;12.108;2022-11-20T14:40:35;13.50;59.10
35700;DHT22;21818;51.078;12.108;2022-11-20T14:43:04;13.50;59.10
35700;DHT22;21818;51.078;12.108;2022-11-20T14:45:40;13.40;59.30
35700;DHT22;21818;51.078;12.108;2022-11-20T14:48:09;13.30;59.30
35700;DHT22;21818;51.078;12.108;2022-11-20T14:50:37;13.20;59.20
35700;DHT22;21818;51.078;12.108;2022-11-20T14:53:03;13.20;59.30
35700;DHT22;21818;51.078;12.108;2022-11-20T14:55:35;13.10;59.40
35700;DHT22;21818;51.078;12.108;2022-11-20T14:58:19;13.00;59.50
35700;DHT22;21818;51.078;12.108;2022-11-20T15:00:54;13.00;59.60
35700;DHT22;21818;51.078;12.108;2022-11-20T15:03:20;12.80;59.60
35700;DHT22;21818;51.078;12.108;2022-11-20T15:05:48;12.70;59.80
35700;DHT22;21818;51.078;12.108;2022-11-20T15:08:14;12.70;60.00
35700;DHT22;21818;51.078;12.108;2022-11-20T15:10:46;12.60;60.10
35700;DHT22;21818;51.078;12.108;2022-11-20T15:13:24;12.50;60.20
35700;DHT22;21818;51.078;12.108;2022-11-20T15:15:53;12.40;60.40
35700;DHT22;21818;51.078;12.108;2022-11-20T15:18:22;12.40;60.60
35700;DHT22;21818;51.078;12.108;2022-11-20T15:20:50;12.30;60.70
35700;DHT22;21818;51.078;12.108;2022-11-20T15:23:17;12.20;60.80
35700;DHT22;21818;51.078;12.108;2022-11-20T15:25:47;12.20;60.90
35700;DHT22;21818;51.078;12.108;2022-11-20T15:30:45;12.10;61.10
35700;DHT22;21818;51.078;12.108;2022-11-20T15:33:11;12.00;61.70
35700;DHT22;21818;51.078;12.108;2022-11-20T15:35:37;11.90;61.30
35700;DHT22;21818;51.078;12.108;2022-11-20T15:38:02;11.90;61.40
35700;DHT22;21818;51.078;12.108;2022-11-20T15:40:28;11.80;61.50
35700;DHT22;21818;51.078;12.108;2022-11-20T15:42:53;11.70;61.60
35700;DHT22;21818;51.078;12.108;2022-11-20T15:45:31;11.70;61.70
35700;DHT22;21818;51.078;12.108;2022-11-20T15:47:58;11.60;61.70
35700;DHT22;21818;51.078;12.108;2022-11-20T15:50:29;11.60;61.90
35700;DHT22;21818;51.078;12.108;2022-11-20T15:52:56;11.60;62.00
35700;DHT22;21818;51.078;12.108;2022-11-20T15:55:22;11.60;62.00
35700;DHT22;21818;51.078;12.108;2022-11-20T15:57:47;11.50;62.10
35700;DHT22;21818;51.078;12.108;2022-11-20T16:00:13;11.50;62.70
35700;DHT22;21818;51.078;12.108;2022-11-20T16:02:39;11.50;62.20
35700;DHT22;21818;51.078;12.108;2022-11-20T16:05:11;11.50;62.30
35700;DHT22;21818;51.078;12.108;2022-11-20T16:07:36;11.40;62.30
35700;DHT22;21818;51.078;12.108;2022-11-20T16:10:02;11.40;62.40
35700;DHT22;21818;51.078;12.108;2022-11-20T16:12:28;11.40;62.40
35700;DHT22;21818;51.078;12.108;2022-11-20T16:15:12;11.40;62.50
35700;DHT22;21818;51.078;12.108;2022-11-20T16:17:56;11.40;62.60
35700;DHT22;21818;51.078;12.108;2022-11-20T16:20:22;11.40;62.60
35700;DHT22;21818;51.078;12.108;2022-11-20T16:22:47;11.30;62.60
35700;DHT22;21818;51.078;12.108;2022-11-20T16:25:13;11.40;62.70
35700;DHT22;21818;51.078;12.108;2022-11-20T16:27:39;11.30;62.70
35700;DHT22;21818;51.078;12.108;2022-11-20T16:30:05;11.30;62.80
35700;DHT22;21818;51.078;12.108;2022-11-20T16:32:30;11.30;62.80
35700;DHT22;21818;51.078;12.108;2022-11-20T16:34:56;11.30;62.90
35700;DHT22;21818;51.078;12.108;2022-11-20T16:37:22;11.20;62.90
35700;DHT22;21818;51.078;12.108;2022-11-20T16:39:47;11.20;63.00
35700;DHT22;21818;51.078;12.108;2022-11-20T16:42:13;11.20;63.00
35700;DHT22;21818;51.078;12.108;2022-11-20T16:44:38;11.20;63.10
35700;DHT22;21818;51.078;12.108;2022-11-20T16:47:04;11.20;63.10
35700;DHT22;21818;51.078;12.108;2022-11-20T16:49:30;11.30;63.30
35700;DHT22;21818;51.078;12.108;2022-11-20T16:51:57;11.20;63.20
35700;DHT22;21818;51.078;12.108;2022-11-20T16:54:23;11.20;63.30
35700;DHT22;21818;51.078;12.108;2022-11-20T16:56:49;11.10;63.20
35700;DHT22;21818;51.078;12.108;2022-11-20T16:59:16;11.10;63.40
35700;DHT22;21818;51.078;12.108;2022-11-20T17:01:42;11.10;63.40
35700;DHT22;21818;51.078;12.108;2022-11-20T17:04:08;11.10;63.50
35700;DHT22;21818;51.078;12.108;2022-11-20T17:06:36;11.10;63.50
35700;DHT22;21818;51.078;12.108;2022-11-20T17:09:02;11.10;63.60